METAR* REPORTS - Stations within 60 miles

(*Meteorological Terminal Aviation Routine weather report)

 

KRDG - Reading, Pennsylvania, USA
Distance from station: SE 19mi, 31km
Updated: Tue, 25-Sep-2018 10:35pm EDT
Mostly Cloudy
Mostly Cloudy
 Wind from calm
Wind: Calm
Temperature: 64°F , 18°C
Dew Point: 64°F , 18°C
Humidity: 100%
Barometer: 30.12 inHg , 1020 hPa
Clouds: Mostly Cloudy
Visibility: 10 miles , 16 km
Cloud details: Mostly Cloudy 1800 ft
2018/09/26 02:35 KRDG 260235Z 00000KT 10SM BKN018 18/18 A3012 RMK AO2 T01780178
KLNS - Lancaster, Pennsylvania, USA
Distance from station: S 33mi, 53km
Updated: Tue, 25-Sep-2018 10:36pm EDT
Mist, Mostly cloudy
Mist, Mostly cloudy
 Wind from E
Wind: E 3 mph , 6 km/h
Temperature: 70°F , 21°C
Dew Point: 70°F , 21°C
Humidity: 100%
Barometer: 30.12 inHg , 1020 hPa
Summary: Mist
Clouds: Mostly Cloudy
Visibility: 4 miles , 6 km
Cloud details: Mostly Cloudy 900 ft
2018/09/26 02:36 KLNS 260236Z 09003KT 4SM BR BKN009 21/21 A3012 RMK AO2 T02060206
 
KSEG - Selinsgrove, Pennsylvania, USA
Distance from station: WNW 39mi, 62km
Updated: Tue, 25-Sep-2018 10:33pm EDT
Mist, Overcast
Mist, Overcast
 Wind from S
Wind: S 3 mph , 6 km/h
Temperature: 64°F , 18°C
Dew Point: 64°F , 18°C
Humidity: 100%
Barometer: 30.10 inHg , 1019.3 hPa
Summary: Mist
Clouds: Overcast
Visibility: 4 miles , 6 km
Cloud details: Mostly Cloudy 300 ft
Overcast 700 ft
2018/09/26 02:33 KSEG 260233Z AUTO 18003KT 4SM BR BKN003 OVC007 18/18 A3010 RMK AO2 T01830178
KABE - Allentown, Pennsylvania, USA
Distance from station: E 39mi, 63km
Updated: Tue, 25-Sep-2018 9:51pm EDT
Mist, Overcast
Mist, Overcast
 Wind from NNE
Wind: NNE 5 mph , 7 km/h
Temperature: 63°F , 17°C
Dew Point: 61°F , 16°C
Humidity: 94%
Barometer: 30.13 inHg , 1020.3 hPa
Summary: Mist
Clouds: Overcast
Visibility: 1/2 mile , 2 km
Cloud details: Overcast 200 ft
2018/09/26 01:51 KABE 260151Z 02004KT 1/2SM BR OVC002 17/16 A3013 RMK AO2 SFC VIS 2 1/2 SLP203 T01720161
 
KMDT - Middletown, Pennsylvania, USA
Distance from station: SW 40mi, 65km
Updated: Tue, 25-Sep-2018 10:35pm EDT
Mist, Overcast
Mist, Overcast
 Wind from calm
Wind: Calm
Temperature: 66°F , 19°C
Dew Point: 66°F , 19°C
Humidity: 100%
Barometer: 30.11 inHg , 1019.6 hPa
Summary: Mist
Clouds: Overcast
Visibility: 3 miles , 5 km
Cloud details: Overcast 400 ft
2018/09/26 02:35 KMDT 260235Z 00000KT 3SM BR OVC004 19/19 A3011 RMK AO2 T01940189
KPTW - Pottstown, Pennsylvania, USA
Distance from station: SE 42mi, 67km
Updated: Tue, 25-Sep-2018 10:47pm EDT
Mist, Overcast
Mist, Overcast
 Wind from calm
Wind: Calm
Temperature: 70°F , 21°C
Dew Point: 70°F , 21°C
Humidity: 100%
Barometer: 30.15 inHg , 1021 hPa
Summary: Mist
Clouds: Overcast
Visibility: 2 miles , 3 km
Cloud details: Overcast 200 ft
2018/09/26 02:47 KPTW 260247Z AUTO 00000KT 2SM BR OVC002 21/21 A3015 RMK AO2 CIG 002V005 T02060206
 
KCXY - Harrisburg, Pennsylvania, USA
Distance from station: SW 43mi, 69km
Updated: Tue, 25-Sep-2018 10:44pm EDT
Mist, Overcast
Mist, Overcast
 Wind from SE
Wind: SE 5 mph , 7 km/h
Temperature: 70°F , 21°C
Dew Point: 64°F , 18°C
Humidity: 83%
Barometer: 30.11 inHg , 1019.6 hPa
Summary: Mist
Clouds: Overcast
Visibility: 3/4 mile , 5 km
Cloud details: Overcast 300 ft
2018/09/26 02:44 KCXY 260244Z AUTO 13004KT 3/4SM R08/4500VP6000FT BR OVC003 21/18 A3011 RMK AO2 T02060183
KUKT - Quakertown Arp, Pennsylvania, USA
Distance from station: ESE 44mi, 70km
Updated: Tue, 25-Sep-2018 10:35pm EDT
Mist, Mostly cloudy
Mist, Mostly cloudy
 Wind from calm
Wind: Calm
Temperature: 66°F , 19°C
Dew Point: 66°F , 19°C
Humidity: 100%
Barometer: 30.14 inHg , 1020.7 hPa
Summary: Mist
Clouds: Mostly Cloudy
Visibility: 5 miles , 8 km
Cloud details: Mostly Cloudy 300 ft
Mostly Cloudy 2700 ft
2018/09/26 02:35 KUKT 260235Z AUTO 00000KT 5SM BR BKN003 BKN027 19/19 A3014 RMK A01
 
KMQS - Coatesville, Pennsylvania, USA
Distance from station: SSE 45mi, 72km
Updated: Tue, 25-Sep-2018 10:35pm EDT
Mist, Mostly cloudy
Mist, Mostly cloudy
 Wind from calm
Wind: Calm
Temperature: 70°F , 21°C
Dew Point: 70°F , 21°C
Humidity: 100%
Barometer: 30.15 inHg , 1021 hPa
Summary: Mist
Clouds: Mostly Cloudy
Visibility: 3 miles , 5 km
Cloud details: Mostly Cloudy 100 ft
Mostly Cloudy 2600 ft
2018/09/26 02:35 KMQS 260235Z AUTO 00000KT 3SM BR BKN001 BKN026 21/21 A3015 RMK AO2
KMPO - Mt. Pocono, Pennsylvania, USA
Distance from station: NE 57mi, 92km
Updated: Tue, 25-Sep-2018 10:41pm EDT
Fog, Overcast
Fog, Overcast
 Wind from S
Wind: S 6 mph , 9 km/h
Temperature: 63°F , 17°C
Dew Point: 63°F , 17°C
Humidity: 100%
Barometer: 30.16 inHg , 1021.3 hPa
Summary: Fog
Clouds: Overcast
Visibility: 1/2 mile , 2 km
Cloud details: Overcast 100 ft
2018/09/26 02:41 KMPO 260241Z AUTO 18005KT 1/2SM FG VV001 17/17 A3016 RMK AO2 T01720172
 
KAVP - Avoca/Wilkes B., Pennsylvania, USA
Distance from station: NNE 58mi, 93km
Updated: Tue, 25-Sep-2018 10:05pm EDT
Overcast
Overcast
 Wind from S
Wind: S 7 mph , 11 km/h
Temperature: 68°F , 20°C
Dew Point: 66°F , 19°C
Humidity: 94%
Barometer: 30.12 inHg , 1020 hPa
Clouds: Overcast
Visibility: 10 miles , 16 km
Cloud details: Partly Cloudy 1400 ft
Mostly Cloudy 1900 ft
Overcast 2800 ft
2018/09/26 02:05 KAVP 260205Z 19006KT 10SM SCT014 BKN019 OVC028 20/19 A3012 RMK AO2 T02000189
KTHV - York, Pennsylvania, USA
Distance from station: SW 59mi, 94km
Updated: Tue, 25-Sep-2018 10:28pm EDT
Overcast
Overcast
 Wind from calm
Wind: Calm
Temperature: 70°F , 21°C
Dew Point: 70°F , 21°C
Humidity: 100%
Barometer: 30.12 inHg , 1020 hPa
Clouds: Overcast
Visibility: 9 miles , 14 km
Cloud details: Few Clouds 600 ft
Overcast 1200 ft
2018/09/26 02:28 KTHV 260228Z AUTO 00000KT 9SM FEW006 OVC012 21/21 A3012 RMK AO2 T02110206
 
KDYL - Doylestown, Pennsylvania, USA
Distance from station: ESE 59mi, 95km
Updated: Tue, 25-Sep-2018 10:25pm EDT
Mist, Overcast
Mist, Overcast
 Wind from SSE
Wind: SSE 3 mph , 6 km/h
Temperature: 70°F , 21°C
Dew Point: 70°F , 21°C
Humidity: 100%
Barometer: 30.13 inHg , 1020.3 hPa
Summary: Mist
Clouds: Overcast
Visibility: 3/4 mile , 5 km
Cloud details: Overcast 200 ft
2018/09/26 02:25 KDYL 260225Z AUTO 16003KT 3/4SM BR VV002 21/21 A3013 RMK AO2 T02060206
KIPT - Williamsport, Pennsylvania, USA
Distance from station: NW 60mi, 96km
Updated: Tue, 25-Sep-2018 10:42pm EDT
Overcast
Overcast
 Wind from ESE
Wind: ESE 8 mph , 13 km/h
Temperature: 66°F , 19°C
Dew Point: 64°F , 18°C
Humidity: 94%
Barometer: 30.07 inHg , 1018.3 hPa
Clouds: Overcast
Visibility: 10 miles , 16 km
Cloud details: Few Clouds 700 ft
Partly Cloudy 1800 ft
Overcast 3100 ft
2018/09/26 02:42 KIPT 260242Z AUTO 11007KT 10SM FEW007 SCT018 OVC031 19/18 A3007 RMK AO2 T01940178